Time;durP1;ratioP1;P1;durP2;ratioP2;P2;SDS_P1;SDS_P2;PMS_P1;PMS_P2;Temp;Humidity;BMP_temperature;BMP_pressure;BME280_temperature;BME280_humidity;BME280_pressure;Samples;Min_cycle;Max_cycle;Signal;HPM_P1;HPM_P2
2022/12/12 00:00:35;;;;;;;;;;;1.40;99.90;;;;;;5093834;28;19908;-42
2022/12/12 00:03:00;;;;;;;;;;;1.40;99.90;;;;;;5093623;28;19916;-40
2022/12/12 00:05:26;;;;;;;;;;;1.40;99.90;;;;;;5108755;28;19912;-40
2022/12/12 00:07:51;;;;;;;;;;;1.40;99.90;;;;;;5114032;28;19915;-39
2022/12/12 00:10:17;;;;;;;;;;;1.40;99.90;;;;;;5113992;28;20262;-39
2022/12/12 00:12:42;;;;;;;;;;;1.40;99.90;;;;;;5094571;28;19926;-40
2022/12/12 00:15:08;;;;;;;;;;;1.40;99.90;;;;;;5101159;28;19919;-40
2022/12/12 00:17:34;;;;;;;;;;;1.40;99.90;;;;;;5102980;28;20256;-40
2022/12/12 00:19:59;;;;;;;;;;;1.40;99.90;;;;;;5112993;28;19908;-40
2022/12/12 00:22:25;;;;;;;;;;;1.40;99.90;;;;;;5113685;28;19947;-39
2022/12/12 00:24:50;;;;;;;;;;;1.40;99.90;;;;;;5108261;28;20397;-39
2022/12/12 00:27:16;;;;;;;;;;;1.40;99.90;;;;;;5112979;28;19918;-39
2022/12/12 00:29:41;;;;;;;;;;;1.40;99.90;;;;;;5113781;28;20286;-40
2022/12/12 00:32:07;;;;;;;;;;;1.40;99.90;;;;;;5113571;28;20373;-41
2022/12/12 00:34:32;;;;;;;;;;;1.30;99.90;;;;;;5104649;28;19918;-40
2022/12/12 00:36:58;;;;;;;;;;;1.40;99.90;;;;;;5093105;28;19915;-39
2022/12/12 00:39:23;;;;;;;;;;;1.40;99.90;;;;;;5093125;28;19961;-39
2022/12/12 00:41:49;;;;;;;;;;;1.40;99.90;;;;;;5092322;28;20321;-41
2022/12/12 00:44:15;;;;;;;;;;;1.40;99.90;;;;;;5110414;28;19911;-41
2022/12/12 00:46:41;;;;;;;;;;;1.30;99.90;;;;;;5113200;28;19907;-41
2022/12/12 00:49:06;;;;;;;;;;;1.40;99.90;;;;;;5112281;28;20345;-40
2022/12/12 00:51:32;;;;;;;;;;;1.30;99.90;;;;;;5113270;28;20286;-40
2022/12/12 00:53:58;;;;;;;;;;;1.40;99.90;;;;;;5098651;28;19912;-41
2022/12/12 00:56:24;;;;;;;;;;;1.40;99.90;;;;;;5092478;28;19997;-41
2022/12/12 00:58:50;;;;;;;;;;;1.40;99.90;;;;;;5092868;28;20446;-39
2022/12/12 01:01:17;;;;;;;;;;;1.40;99.90;;;;;;5092158;28;19924;-39
2022/12/12 01:03:43;;;;;;;;;;;1.40;99.90;;;;;;5103383;28;19934;-43
2022/12/12 01:06:08;;;;;;;;;;;1.40;99.90;;;;;;5113064;28;20348;-40
2022/12/12 01:08:34;;;;;;;;;;;1.40;99.90;;;;;;5112504;28;19908;-40
2022/12/12 01:10:59;;;;;;;;;;;1.40;99.90;;;;;;5112680;28;19915;-39
2022/12/12 01:13:25;;;;;;;;;;;1.30;99.90;;;;;;5106154;28;19987;-40
2022/12/12 01:15:51;;;;;;;;;;;1.40;99.90;;;;;;5091979;28;19915;-39
2022/12/12 01:18:17;;;;;;;;;;;1.40;99.90;;;;;;5092747;28;19908;-42
2022/12/12 01:20:43;;;;;;;;;;;1.40;99.90;;;;;;5092509;28;19938;-44
2022/12/12 01:23:08;;;;;;;;;;;1.40;99.90;;;;;;5095469;28;19916;-39
2022/12/12 01:25:34;;;;;;;;;;;1.40;99.90;;;;;;5113041;28;19938;-39
2022/12/12 01:27:59;;;;;;;;;;;1.40;99.90;;;;;;5112890;28;20016;-39
2022/12/12 01:30:25;;;;;;;;;;;1.40;99.90;;;;;;5092337;28;19920;-38
2022/12/12 01:32:51;;;;;;;;;;;1.40;99.90;;;;;;5093549;28;20005;-39
2022/12/12 01:35:17;;;;;;;;;;;1.40;99.90;;;;;;5112914;28;19908;-39
2022/12/12 01:37:43;;;;;;;;;;;1.40;99.90;;;;;;5111656;28;20004;-39
2022/12/12 01:40:13;;;;;;;;;;;1.40;99.90;;;;;;5112737;28;19963;-43
2022/12/12 01:42:38;;;;;;;;;;;1.40;99.90;;;;;;5112860;28;20057;-40
2022/12/12 01:45:05;;;;;;;;;;;1.40;99.90;;;;;;5091884;28;19987;-40
2022/12/12 01:47:30;;;;;;;;;;;1.40;99.90;;;;;;5092620;28;19908;-40
2022/12/12 01:50:07;;;;;;;;;;;1.40;99.90;;;;;;5092542;28;19919;-40
2022/12/12 01:52:40;;;;;;;;;;;1.40;99.90;;;;;;5091619;28;20387;-39
2022/12/12 01:55:09;;;;;;;;;;;1.40;99.90;;;;;;5111736;28;19922;-41
2022/12/12 01:57:40;;;;;;;;;;;1.40;99.90;;;;;;5111973;28;19915;-41
2022/12/12 02:00:07;;;;;;;;;;;1.40;99.90;;;;;;5112732;28;19912;-40
2022/12/12 02:02:33;;;;;;;;;;;1.40;99.90;;;;;;5115169;28;20003;-39
2022/12/12 02:05:01;;;;;;;;;;;1.40;99.90;;;;;;5096870;28;19963;-42
2022/12/12 02:07:27;;;;;;;;;;;1.40;99.90;;;;;;5096161;28;19954;-43
2022/12/12 02:09:52;;;;;;;;;;;1.40;99.90;;;;;;5096073;28;19908;-40
2022/12/12 02:12:18;;;;;;;;;;;1.40;99.90;;;;;;5094822;28;19919;-39
2022/12/12 02:14:48;;;;;;;;;;;1.40;99.90;;;;;;5110778;28;19915;-41
2022/12/12 02:17:38;;;;;;;;;;;1.40;99.90;;;;;;5095573;28;20363;-39
2022/12/12 02:20:22;;;;;;;;;;;1.40;99.90;;;;;;5094904;28;19951;-41
2022/12/12 02:23:00;;;;;;;;;;;1.40;99.90;;;;;;5095652;28;19916;-41
2022/12/12 02:25:31;;;;;;;;;;;1.40;99.90;;;;;;5094901;28;19920;-44
2022/12/12 02:28:08;;;;;;;;;;;1.40;99.90;;;;;;5095651;28;19914;-40
2022/12/12 02:30:39;;;;;;;;;;;1.40;99.90;;;;;;5103759;28;19998;-40
2022/12/12 02:33:19;;;;;;;;;;;1.40;99.90;;;;;;5113878;28;19912;-40
2022/12/12 02:35:55;;;;;;;;;;;1.40;99.90;;;;;;5095541;28;19908;-39
2022/12/12 02:38:24;;;;;;;;;;;1.40;99.90;;;;;;5095659;28;19915;-42
2022/12/12 02:40:49;;;;;;;;;;;1.40;99.90;;;;;;5094806;28;19908;-41
2022/12/12 02:43:19;;;;;;;;;;;1.40;99.90;;;;;;5097280;28;19912;-42
2022/12/12 02:45:45;;;;;;;;;;;1.40;99.90;;;;;;5113975;28;19912;-41
2022/12/12 02:48:18;;;;;;;;;;;1.30;99.90;;;;;;5115553;28;19908;-39
2022/12/12 02:50:45;;;;;;;;;;;1.40;99.90;;;;;;5115737;28;19989;-39
2022/12/12 02:53:11;;;;;;;;;;;1.40;99.90;;;;;;5116157;28;20014;-39
2022/12/12 02:55:36;;;;;;;;;;;1.40;99.90;;;;;;5114974;28;19994;-43
2022/12/12 02:58:03;;;;;;;;;;;1.40;99.90;;;;;;5115859;28;20342;-41
2022/12/12 03:00:33;;;;;;;;;;;1.40;99.90;;;;;;5104752;28;19934;-41
2022/12/12 03:08:55;;;;;;;;;;;1.30;99.90;;;;;;5114725;28;19919;-40
2022/12/12 03:11:30;;;;;;;;;;;1.40;99.90;;;;;;5114847;28;19919;-39
2022/12/12 03:13:57;;;;;;;;;;;1.40;99.90;;;;;;5114628;28;20401;-41
2022/12/12 03:16:27;;;;;;;;;;;1.30;99.90;;;;;;5097469;28;20421;-39
2022/12/12 03:18:58;;;;;;;;;;;1.30;99.90;;;;;;5094758;28;19908;-39
2022/12/12 03:21:42;;;;;;;;;;;1.30;99.90;;;;;;5094731;28;20343;-40
2022/12/12 03:24:27;;;;;;;;;;;1.30;99.90;;;;;;5094614;28;19908;-41
2022/12/12 03:26:55;;;;;;;;;;;1.30;99.90;;;;;;5098207;28;19912;-39
2022/12/12 03:29:24;;;;;;;;;;;1.30;99.90;;;;;;5094055;28;19908;-39
2022/12/12 03:31:51;;;;;;;;;;;1.30;99.90;;;;;;5094358;28;20286;-39
2022/12/12 03:34:25;;;;;;;;;;;1.30;99.90;;;;;;5093083;28;19912;-42
2022/12/12 03:36:53;;;;;;;;;;;1.30;99.90;;;;;;5111912;28;20393;-39
2022/12/12 03:39:33;;;;;;;;;;;1.30;99.90;;;;;;5114770;28;20354;-39
2022/12/12 03:42:03;;;;;;;;;;;1.30;99.90;;;;;;5114646;28;19907;-40
2022/12/12 03:44:31;;;;;;;;;;;1.30;99.90;;;;;;5113708;28;19915;-39
2022/12/12 03:47:06;;;;;;;;;;;1.30;99.90;;;;;;5077371;28;20317;-39
2022/12/12 03:49:49;;;;;;;;;;;1.30;99.90;;;;;;5094206;28;19908;-41
2022/12/12 03:52:21;;;;;;;;;;;1.30;99.90;;;;;;5093823;28;19916;-39
2022/12/12 03:54:49;;;;;;;;;;;1.30;99.90;;;;;;5108117;28;19915;-39
2022/12/12 03:57:21;;;;;;;;;;;1.30;99.90;;;;;;5113528;28;19908;-39
2022/12/12 03:59:49;;;;;;;;;;;1.30;99.90;;;;;;5114114;28;19965;-40
2022/12/12 04:02:20;;;;;;;;;;;1.30;99.90;;;;;;5114853;28;19908;-39
2022/12/12 04:04:50;;;;;;;;;;;1.30;99.90;;;;;;5099743;28;19942;-40
2022/12/12 04:07:23;;;;;;;;;;;1.30;99.90;;;;;;5094339;28;19962;-40
2022/12/12 04:12:59;;;;;;;;;;;1.30;99.90;;;;;;5092742;28;20014;-40
2022/12/12 04:15:28;;;;;;;;;;;1.30;99.90;;;;;;5112751;28;19912;-40
2022/12/12 04:17:56;;;;;;;;;;;1.30;99.90;;;;;;5113939;28;19957;-39
2022/12/12 04:23:15;;;;;;;;;;;1.30;99.90;;;;;;5113837;28;20330;-39
2022/12/12 04:29:01;;;;;;;;;;;1.30;99.90;;;;;;5106124;28;20294;-40
2022/12/12 04:31:27;;;;;;;;;;;1.30;99.90;;;;;;5113953;28;19938;-44
2022/12/12 04:33:55;;;;;;;;;;;1.40;99.90;;;;;;5109275;28;20295;-40
2022/12/12 04:36:22;;;;;;;;;;;1.30;99.90;;;;;;5093223;28;19912;-42
2022/12/12 04:38:48;;;;;;;;;;;1.30;99.90;;;;;;5093176;28;20003;-40
2022/12/12 04:41:15;;;;;;;;;;;1.30;99.90;;;;;;5092457;28;19908;-40
2022/12/12 04:43:42;;;;;;;;;;;1.30;99.90;;;;;;5094866;28;19970;-40
2022/12/12 04:46:11;;;;;;;;;;;1.30;99.90;;;;;;5112712;28;19938;-42
2022/12/12 04:48:39;;;;;;;;;;;1.30;99.90;;;;;;5113495;28;19912;-39
2022/12/12 04:51:05;;;;;;;;;;;1.20;99.90;;;;;;5113209;28;19920;-41
2022/12/12 04:53:36;;;;;;;;;;;1.30;99.90;;;;;;5098008;28;20478;-39
2022/12/12 04:56:05;;;;;;;;;;;1.30;99.90;;;;;;5092912;28;19912;-41
2022/12/12 04:58:30;;;;;;;;;;;1.30;99.90;;;;;;5093043;28;19908;-40
2022/12/12 05:00:58;;;;;;;;;;;1.30;99.90;;;;;;5092002;28;19958;-40
2022/12/12 05:03:40;;;;;;;;;;;1.30;99.90;;;;;;5105319;28;20294;-41
2022/12/12 05:06:10;;;;;;;;;;;1.30;99.90;;;;;;5113252;28;19912;-39
2022/12/12 05:08:38;;;;;;;;;;;1.30;99.90;;;;;;5112428;28;19950;-41
2022/12/12 05:11:04;;;;;;;;;;;1.30;99.90;;;;;;5112806;28;19969;-40
2022/12/12 05:13:31;;;;;;;;;;;1.20;99.90;;;;;;5099552;28;19912;-41
2022/12/12 05:15:57;;;;;;;;;;;1.30;99.90;;;;;;5091933;28;19951;-41
2022/12/12 05:18:23;;;;;;;;;;;1.20;99.90;;;;;;5092663;28;20334;-39
2022/12/12 05:20:48;;;;;;;;;;;1.30;99.90;;;;;;5092696;28;19943;-40
2022/12/12 05:23:14;;;;;;;;;;;1.30;99.90;;;;;;5102135;28;19911;-40
2022/12/12 05:25:40;;;;;;;;;;;1.30;99.90;;;;;;5113091;28;20390;-39
2022/12/12 05:28:05;;;;;;;;;;;1.30;99.90;;;;;;5112970;28;19911;-40
2022/12/12 05:30:31;;;;;;;;;;;1.30;99.90;;;;;;5112070;28;19990;-39
2022/12/12 05:32:56;;;;;;;;;;;1.30;99.90;;;;;;5105613;28;19951;-40
2022/12/12 05:35:22;;;;;;;;;;;1.30;99.90;;;;;;5093243;28;19908;-40
2022/12/12 05:37:48;;;;;;;;;;;1.30;99.90;;;;;;5097198;28;20345;-39
2022/12/12 05:40:13;;;;;;;;;;;1.30;99.90;;;;;;5097023;28;19961;-40
2022/12/12 05:42:39;;;;;;;;;;;1.30;99.90;;;;;;5100832;28;20449;-39
2022/12/12 05:45:05;;;;;;;;;;;1.30;99.90;;;;;;5116867;28;19907;-39
2022/12/12 05:47:31;;;;;;;;;;;1.30;99.90;;;;;;5116870;28;20336;-41
2022/12/12 05:49:56;;;;;;;;;;;1.30;99.90;;;;;;5116146;28;19994;-40
2022/12/12 05:52:22;;;;;;;;;;;1.30;99.90;;;;;;5114491;28;19915;-40
2022/12/12 05:54:47;;;;;;;;;;;1.30;99.90;;;;;;5096294;28;19908;-39
2022/12/12 05:57:13;;;;;;;;;;;1.20;99.90;;;;;;5095406;28;20264;-41
2022/12/12 05:59:38;;;;;;;;;;;1.20;99.90;;;;;;5096272;28;19908;-40
2022/12/12 06:02:04;;;;;;;;;;;1.20;99.90;;;;;;5109255;28;20394;-40
2022/12/12 06:04:29;;;;;;;;;;;1.20;99.90;;;;;;5116017;28;19915;-39
2022/12/12 06:06:55;;;;;;;;;;;1.20;99.90;;;;;;5116567;28;20438;-43
2022/12/12 06:09:20;;;;;;;;;;;1.20;99.90;;;;;;5103885;28;19912;-39
2022/12/12 06:11:46;;;;;;;;;;;1.20;99.90;;;;;;5095469;28;20023;-39
2022/12/12 06:14:11;;;;;;;;;;;1.20;99.90;;;;;;5095735;28;19999;-40
2022/12/12 06:16:37;;;;;;;;;;;1.20;99.90;;;;;;5110207;28;19908;-38
2022/12/12 06:19:02;;;;;;;;;;;1.20;99.90;;;;;;5115023;28;20002;-39
2022/12/12 06:21:28;;;;;;;;;;;1.20;99.90;;;;;;5115431;28;20012;-40
2022/12/12 06:23:54;;;;;;;;;;;1.20;99.90;;;;;;5115764;28;19912;-40
2022/12/12 06:26:19;;;;;;;;;;;1.20;99.90;;;;;;5115323;28;19908;-40
2022/12/12 06:28:45;;;;;;;;;;;1.20;99.90;;;;;;5116091;28;19930;-41
2022/12/12 06:31:12;;;;;;;;;;;1.20;99.90;;;;;;5110669;28;19961;-41
2022/12/12 06:33:37;;;;;;;;;;;1.20;99.90;;;;;;5094823;28;19999;-39
2022/12/12 06:36:02;;;;;;;;;;;1.20;99.90;;;;;;5095394;28;19943;-42
2022/12/12 06:38:28;;;;;;;;;;;1.10;99.90;;;;;;5095598;28;19908;-40
2022/12/12 06:40:54;;;;;;;;;;;1.10;99.90;;;;;;5094617;28;19908;-39
2022/12/12 06:43:19;;;;;;;;;;;1.10;99.90;;;;;;5115123;28;19914;-39
2022/12/12 06:45:45;;;;;;;;;;;1.10;99.90;;;;;;5115079;28;19999;-39
2022/12/12 06:48:11;;;;;;;;;;;1.20;99.90;;;;;;5114966;28;19912;-40
2022/12/12 06:50:40;;;;;;;;;;;1.20;99.90;;;;;;5115488;28;20374;-39
2022/12/12 06:53:05;;;;;;;;;;;1.20;99.90;;;;;;5096825;28;19919;-39
2022/12/12 06:55:31;;;;;;;;;;;1.20;99.90;;;;;;5095091;28;19912;-39
2022/12/12 06:57:56;;;;;;;;;;;1.20;99.90;;;;;;5095083;28;19915;-40
2022/12/12 07:00:22;;;;;;;;;;;1.20;99.90;;;;;;5094157;28;19935;-39
2022/12/12 07:02:48;;;;;;;;;;;1.20;99.90;;;;;;5096129;28;19935;-39
2022/12/12 07:05:13;;;;;;;;;;;1.20;99.90;;;;;;5094992;28;19966;-38
2022/12/12 07:07:39;;;;;;;;;;;1.20;99.90;;;;;;5094236;28;20381;-41
2022/12/12 07:10:05;;;;;;;;;;;1.20;99.90;;;;;;5094726;28;19908;-40
2022/12/12 07:12:30;;;;;;;;;;;1.10;99.90;;;;;;5104988;28;20447;-39
2022/12/12 07:14:55;;;;;;;;;;;1.10;99.90;;;;;;5114135;28;19919;-40
2022/12/12 07:17:21;;;;;;;;;;;1.10;99.90;;;;;;5115191;28;19946;-39
2022/12/12 07:19:47;;;;;;;;;;;1.20;99.90;;;;;;5114983;28;19919;-44
2022/12/12 07:22:12;;;;;;;;;;;1.20;99.90;;;;;;5112078;28;20393;-39
2022/12/12 07:24:38;;;;;;;;;;;1.20;99.90;;;;;;5113230;28;19916;-40
2022/12/12 07:27:03;;;;;;;;;;;1.20;99.90;;;;;;5113396;28;19908;-40
2022/12/12 07:29:29;;;;;;;;;;;1.20;99.90;;;;;;5112599;28;19919;-40
2022/12/12 07:31:54;;;;;;;;;;;1.20;99.90;;;;;;5112353;28;19928;-40
2022/12/12 07:34:20;;;;;;;;;;;1.20;99.90;;;;;;5113284;28;20002;-39
2022/12/12 07:36:45;;;;;;;;;;;1.20;99.90;;;;;;5112512;28;19916;-41
2022/12/12 07:39:12;;;;;;;;;;;1.20;99.90;;;;;;5110397;28;19911;-44
2022/12/12 07:41:37;;;;;;;;;;;1.20;99.90;;;;;;5113086;28;19908;-45
2022/12/12 07:44:03;;;;;;;;;;;1.10;99.90;;;;;;5108355;28;19911;-41
2022/12/12 07:46:29;;;;;;;;;;;1.20;99.90;;;;;;5109912;28;19957;-43
2022/12/12 07:48:54;;;;;;;;;;;1.20;99.90;;;;;;5112408;27;19955;-41
2022/12/12 07:51:20;;;;;;;;;;;1.10;99.90;;;;;;5108819;28;19928;-39
2022/12/12 07:53:46;;;;;;;;;;;1.20;99.90;;;;;;5108664;28;19998;-40
2022/12/12 07:56:12;;;;;;;;;;;1.20;99.90;;;;;;5109054;28;19951;-42
2022/12/12 07:58:38;;;;;;;;;;;1.20;99.90;;;;;;5109685;28;19908;-40
2022/12/12 08:01:23;;;;;;;;;;;1.30;99.90;;;;;;5114492;27;19980;-40
2022/12/12 08:03:49;;;;;;;;;;;1.30;99.90;;;;;;5117808;27;19919;-42
2022/12/12 08:06:15;;;;;;;;;;;1.30;99.90;;;;;;5108103;28;19942;-42
2022/12/12 08:08:41;;;;;;;;;;;1.30;99.90;;;;;;5118364;27;19914;-43
2022/12/12 08:11:07;;;;;;;;;;;1.30;99.90;;;;;;5124931;27;19923;-39
2022/12/12 08:13:37;;;;;;;;;;;1.30;99.90;;;;;;5095797;28;19916;-41
2022/12/12 08:16:03;;;;;;;;;;;1.40;99.90;;;;;;5093297;28;19915;-39
2022/12/12 08:18:29;;;;;;;;;;;1.40;99.90;;;;;;5092882;28;19947;-41
2022/12/12 08:20:54;;;;;;;;;;;1.40;99.90;;;;;;5110200;28;19959;-40
2022/12/12 08:23:20;;;;;;;;;;;1.40;99.90;;;;;;5113793;28;19914;-39
2022/12/12 08:25:45;;;;;;;;;;;1.40;99.90;;;;;;5112948;28;20430;-39
2022/12/12 08:28:11;;;;;;;;;;;1.50;99.90;;;;;;5113827;28;19915;-40
2022/12/12 08:30:36;;;;;;;;;;;1.50;99.90;;;;;;5098950;28;19963;-40
2022/12/12 08:33:02;;;;;;;;;;;1.50;99.90;;;;;;5092655;28;19908;-40
2022/12/12 08:35:28;;;;;;;;;;;1.50;99.90;;;;;;5093390;28;19908;-40
2022/12/12 08:37:54;;;;;;;;;;;1.50;99.90;;;;;;5093257;28;20286;-39
2022/12/12 08:40:19;;;;;;;;;;;1.50;99.90;;;;;;5103252;28;19912;-39
2022/12/12 08:42:45;;;;;;;;;;;1.50;99.90;;;;;;5113630;28;20056;-43
2022/12/12 08:45:10;;;;;;;;;;;1.50;99.90;;;;;;5113164;28;20036;-39
2022/12/12 08:47:36;;;;;;;;;;;1.50;99.90;;;;;;5112801;28;19914;-40
2022/12/12 08:50:02;;;;;;;;;;;1.50;99.90;;;;;;5102585;28;19916;-41
2022/12/12 08:52:27;;;;;;;;;;;1.40;99.90;;;;;;5122878;27;20014;-39
2022/12/12 08:54:53;;;;;;;;;;;1.30;99.90;;;;;;5133906;27;19909;-43
2022/12/12 08:57:18;;;;;;;;;;;1.30;99.90;;;;;;5111904;27;20374;-39
2022/12/12 08:59:44;;;;;;;;;;;1.30;99.90;;;;;;5099708;28;19944;-41
2022/12/12 09:02:12;;;;;;;;;;;1.30;99.90;;;;;;5113295;28;20387;-40
2022/12/12 09:04:37;;;;;;;;;;;1.30;99.90;;;;;;5102122;28;19912;-42
2022/12/12 09:07:03;;;;;;;;;;;1.30;99.90;;;;;;5096899;28;20002;-43
2022/12/12 09:09:29;;;;;;;;;;;1.30;99.90;;;;;;5113233;27;19912;-39
2022/12/12 09:11:54;;;;;;;;;;;1.40;99.90;;;;;;5103024;28;19927;-40
2022/12/12 09:14:20;;;;;;;;;;;1.40;99.90;;;;;;5092199;28;19909;-39
2022/12/12 09:16:45;;;;;;;;;;;1.40;99.90;;;;;;5095514;28;19912;-39
2022/12/12 09:19:11;;;;;;;;;;;1.50;99.90;;;;;;5104748;28;20278;-39
2022/12/12 09:21:37;;;;;;;;;;;1.50;99.90;;;;;;5092661;28;19912;-39
2022/12/12 09:24:02;;;;;;;;;;;1.50;99.90;;;;;;5093083;28;20007;-39
2022/12/12 09:26:28;;;;;;;;;;;1.50;99.90;;;;;;5093062;28;19916;-41
2022/12/12 09:28:53;;;;;;;;;;;1.50;99.90;;;;;;5093419;28;20275;-42
2022/12/12 09:31:19;;;;;;;;;;;1.50;99.90;;;;;;5093047;28;19916;-41
2022/12/12 09:33:46;;;;;;;;;;;1.40;99.90;;;;;;5093228;28;19912;-41
2022/12/12 09:36:12;;;;;;;;;;;1.50;99.90;;;;;;5092097;28;19914;-39
2022/12/12 09:38:38;;;;;;;;;;;1.50;99.90;;;;;;5099567;28;20021;-40
2022/12/12 09:41:03;;;;;;;;;;;1.50;99.90;;;;;;5103157;28;20355;-41
2022/12/12 09:43:31;;;;;;;;;;;1.60;99.90;;;;;;5091758;28;19969;-41
2022/12/12 09:45:57;;;;;;;;;;;1.60;99.90;;;;;;5102904;28;20363;-40
2022/12/12 09:48:27;;;;;;;;;;;1.60;99.90;;;;;;5120153;28;19919;-42
2022/12/12 09:50:53;;;;;;;;;;;1.60;99.90;;;;;;5099114;28;20367;-39
2022/12/12 09:53:20;;;;;;;;;;;1.70;99.90;;;;;;5119802;28;20355;-40
2022/12/12 09:56:04;;;;;;;;;;;1.70;99.90;;;;;;5119519;28;19908;-40
2022/12/12 09:58:51;;;;;;;;;;;1.70;99.90;;;;;;5132359;28;20004;-41
2022/12/12 10:01:24;;;;;;;;;;;1.80;99.90;;;;;;5099555;28;19920;-39
2022/12/12 10:03:59;;;;;;;;;;;1.80;99.90;;;;;;5122363;28;19907;-40
2022/12/12 10:06:27;;;;;;;;;;;1.80;99.90;;;;;;5103716;28;19918;-40
2022/12/12 10:09:20;;;;;;;;;;;1.90;99.90;;;;;;5117873;28;19969;-39
2022/12/12 10:11:49;;;;;;;;;;;1.90;99.90;;;;;;5131974;27;19919;-41
2022/12/12 10:14:26;;;;;;;;;;;1.90;99.90;;;;;;5109249;28;20390;-39
2022/12/12 10:16:53;;;;;;;;;;;1.90;99.90;;;;;;5098007;28;20284;-38
2022/12/12 10:19:21;;;;;;;;;;;1.90;99.90;;;;;;5108969;28;20007;-40
2022/12/12 10:21:48;;;;;;;;;;;1.90;99.90;;;;;;5102743;28;20030;-41
2022/12/12 10:24:32;;;;;;;;;;;1.90;99.90;;;;;;5106955;28;19957;-42
2022/12/12 10:26:58;;;;;;;;;;;2.00;99.90;;;;;;5109173;28;20000;-41
2022/12/12 10:29:25;;;;;;;;;;;2.10;99.90;;;;;;5116361;28;20011;-41
2022/12/12 10:32:01;;;;;;;;;;;2.10;99.90;;;;;;5116081;28;20354;-39
2022/12/12 10:34:26;;;;;;;;;;;2.20;99.90;;;;;;5100210;28;19916;-40
2022/12/12 10:37:13;;;;;;;;;;;2.20;99.90;;;;;;5096144;28;20059;-41
2022/12/12 10:39:39;;;;;;;;;;;2.20;99.90;;;;;;5095947;28;19909;-42
2022/12/12 10:42:23;;;;;;;;;;;2.20;99.90;;;;;;5096157;28;19977;-39
2022/12/12 10:44:52;;;;;;;;;;;2.30;99.90;;;;;;5096534;28;20362;-40
2022/12/12 10:47:18;;;;;;;;;;;2.30;99.90;;;;;;5096022;28;19990;-40
2022/12/12 10:49:43;;;;;;;;;;;2.30;99.90;;;;;;5096058;28;19908;-39
2022/12/12 10:52:15;;;;;;;;;;;2.30;99.90;;;;;;5095372;28;20031;-40
2022/12/12 10:54:43;;;;;;;;;;;2.30;99.90;;;;;;5112429;28;19918;-40
2022/12/12 10:57:13;;;;;;;;;;;2.30;99.90;;;;;;5116309;28;19915;-39
2022/12/12 10:59:44;;;;;;;;;;;2.40;99.90;;;;;;5115865;28;19931;-39
2022/12/12 11:02:21;;;;;;;;;;;2.50;99.90;;;;;;5116184;28;19908;-40
2022/12/12 11:04:46;;;;;;;;;;;2.50;99.90;;;;;;5098048;28;19912;-41
2022/12/12 11:07:18;;;;;;;;;;;2.60;99.90;;;;;;5095319;28;20228;-42
2022/12/12 11:09:44;;;;;;;;;;;2.60;99.90;;;;;;5095625;28;19913;-42
2022/12/12 11:12:10;;;;;;;;;;;2.60;99.90;;;;;;5104709;28;19931;-41
2022/12/12 11:14:39;;;;;;;;;;;2.60;99.90;;;;;;5115299;28;19999;-41
2022/12/12 11:17:23;;;;;;;;;;;2.60;99.90;;;;;;5113278;28;19965;-42
2022/12/12 11:19:50;;;;;;;;;;;2.60;99.90;;;;;;5114996;28;20347;-39
2022/12/12 11:22:16;;;;;;;;;;;2.70;99.90;;;;;;5113435;28;19919;-41
2022/12/12 11:24:44;;;;;;;;;;;2.70;99.90;;;;;;5115668;28;19907;-40
2022/12/12 11:27:18;;;;;;;;;;;2.80;99.90;;;;;;5115107;28;19954;-39
2022/12/12 11:29:44;;;;;;;;;;;2.80;99.90;;;;;;5108182;28;19912;-41
2022/12/12 11:32:17;;;;;;;;;;;2.80;99.90;;;;;;5104336;28;19965;-40
2022/12/12 11:34:44;;;;;;;;;;;2.80;99.90;;;;;;5102244;28;19916;-40
2022/12/12 11:37:14;;;;;;;;;;;2.80;99.90;;;;;;5097806;28;20274;-40
2022/12/12 11:39:42;;;;;;;;;;;2.90;99.90;;;;;;5113212;27;19907;-39
2022/12/12 11:42:13;;;;;;;;;;;2.90;99.90;;;;;;5117693;27;19920;-39
2022/12/12 11:44:39;;;;;;;;;;;2.90;99.90;;;;;;5105323;27;19958;-41
2022/12/12 11:47:37;;;;;;;;;;;2.90;99.90;;;;;;5097170;28;20054;-39
2022/12/12 11:50:15;;;;;;;;;;;2.90;99.90;;;;;;5111176;27;19907;-40
2022/12/12 11:52:40;;;;;;;;;;;3.00;99.90;;;;;;5114537;28;19938;-41
2022/12/12 11:55:11;;;;;;;;;;;3.00;99.90;;;;;;5114273;28;20351;-43
2022/12/12 11:57:43;;;;;;;;;;;3.00;99.90;;;;;;5095217;28;19970;-39
2022/12/12 12:00:13;;;;;;;;;;;3.00;99.90;;;;;;5100619;27;19912;-40
2022/12/12 12:02:54;;;;;;;;;;;3.00;99.90;;;;;;5133851;27;20370;-39
2022/12/12 12:05:30;;;;;;;;;;;3.00;99.90;;;;;;5124331;27;19908;-39
2022/12/12 12:08:02;;;;;;;;;;;3.10;99.90;;;;;;5114318;28;19908;-40
2022/12/12 12:10:37;;;;;;;;;;;3.10;99.90;;;;;;5113329;28;20274;-41
2022/12/12 12:13:28;;;;;;;;;;;3.10;99.90;;;;;;5113808;28;19966;-41
2022/12/12 12:16:12;;;;;;;;;;;3.10;99.90;;;;;;5109437;28;20369;-41
2022/12/12 12:18:41;;;;;;;;;;;3.10;99.90;;;;;;5133297;27;19911;-39
2022/12/12 12:21:15;;;;;;;;;;;3.10;99.90;;;;;;5134091;27;20419;-39
2022/12/12 12:23:52;;;;;;;;;;;3.10;99.90;;;;;;5133922;27;19907;-41
2022/12/12 12:26:24;;;;;;;;;;;3.10;99.90;;;;;;5135234;27;20361;-39
2022/12/12 12:28:55;;;;;;;;;;;3.10;99.90;;;;;;5110412;27;19912;-40
2022/12/12 12:31:30;;;;;;;;;;;3.10;99.90;;;;;;5101103;28;19967;-39
2022/12/12 12:34:01;;;;;;;;;;;3.10;99.90;;;;;;5134571;27;19914;-38
2022/12/12 12:36:43;;;;;;;;;;;3.20;99.90;;;;;;5094066;28;19912;-39
2022/12/12 12:39:11;;;;;;;;;;;3.20;99.90;;;;;;5093453;28;19934;-40
2022/12/12 12:41:49;;;;;;;;;;;3.30;99.90;;;;;;5097873;28;19966;-40
2022/12/12 12:44:18;;;;;;;;;;;3.30;99.90;;;;;;5095977;28;20025;-40
2022/12/12 12:46:55;;;;;;;;;;;3.30;99.90;;;;;;5091308;28;19922;-39
2022/12/12 12:49:27;;;;;;;;;;;3.30;99.90;;;;;;5121949;27;19912;-41
2022/12/12 12:51:59;;;;;;;;;;;3.30;99.90;;;;;;5111692;28;19916;-40
2022/12/12 12:54:37;;;;;;;;;;;3.40;99.90;;;;;;5099191;27;19912;-41
2022/12/12 12:57:11;;;;;;;;;;;3.30;99.90;;;;;;5094114;28;19919;-41
2022/12/12 12:59:42;;;;;;;;;;;3.30;99.90;;;;;;5103615;28;19916;-41
2022/12/12 13:02:14;;;;;;;;;;;3.40;99.90;;;;;;5096699;28;20310;-40
2022/12/12 13:04:46;;;;;;;;;;;3.50;99.90;;;;;;5106082;28;19912;-39
2022/12/12 13:07:17;;;;;;;;;;;3.50;99.90;;;;;;5097257;28;19912;-41
2022/12/12 13:09:48;;;;;;;;;;;3.50;99.90;;;;;;5096633;28;19919;-41
2022/12/12 13:12:27;;;;;;;;;;;3.50;99.90;;;;;;5113308;28;19927;-40
2022/12/12 13:14:53;;;;;;;;;;;3.50;99.90;;;;;;5106726;27;20278;-41
2022/12/12 13:17:20;;;;;;;;;;;3.50;99.90;;;;;;5092663;28;19913;-40
2022/12/12 13:19:48;;;;;;;;;;;3.40;99.90;;;;;;5090981;28;20424;-39
2022/12/12 13:22:43;;;;;;;;;;;3.40;99.90;;;;;;5107379;28;19912;-39
2022/12/12 13:25:28;;;;;;;;;;;3.30;99.90;;;;;;5102590;28;19913;-40
2022/12/12 13:27:54;;;;;;;;;;;3.30;99.90;;;;;;5091471;28;19912;-40
2022/12/12 13:30:24;;;;;;;;;;;3.30;99.90;;;;;;5092791;28;19990;-39
2022/12/12 13:32:58;;;;;;;;;;;3.20;99.90;;;;;;5092336;28;19916;-39
2022/12/12 13:35:30;;;;;;;;;;;3.20;99.90;;;;;;5092816;28;19959;-40
2022/12/12 13:37:56;;;;;;;;;;;3.10;99.90;;;;;;5092482;28;19912;-39
2022/12/12 13:40:26;;;;;;;;;;;3.10;99.90;;;;;;5092401;28;19962;-40
2022/12/12 13:42:54;;;;;;;;;;;3.00;99.90;;;;;;5091478;28;19967;-39
2022/12/12 13:45:33;;;;;;;;;;;3.00;99.90;;;;;;5104171;28;20358;-39
2022/12/12 13:48:08;;;;;;;;;;;3.00;99.90;;;;;;5112047;28;19912;-38
2022/12/12 13:50:34;;;;;;;;;;;3.00;99.90;;;;;;5112850;28;19914;-40
2022/12/12 13:53:05;;;;;;;;;;;3.00;99.90;;;;;;5112912;28;19912;-39
2022/12/12 13:55:31;;;;;;;;;;;3.00;99.90;;;;;;5112076;28;19915;-41
2022/12/12 13:58:01;;;;;;;;;;;3.00;99.90;;;;;;5095826;28;19926;-39
2022/12/12 14:00:36;;;;;;;;;;;3.00;99.90;;;;;;5096398;28;19908;-39
2022/12/12 14:03:04;;;;;;;;;;;3.00;99.90;;;;;;5095489;28;19962;-39
2022/12/12 14:05:32;;;;;;;;;;;3.00;99.90;;;;;;5096965;28;19971;-39
2022/12/12 14:08:04;;;;;;;;;;;2.90;99.90;;;;;;5096141;28;19963;-40
2022/12/12 14:10:32;;;;;;;;;;;2.90;99.90;;;;;;5095378;28;19908;-39
2022/12/12 14:13:14;;;;;;;;;;;2.90;99.90;;;;;;5095582;28;19923;-39
2022/12/12 14:15:40;;;;;;;;;;;2.80;99.90;;;;;;5096116;28;20359;-40
2022/12/12 14:18:16;;;;;;;;;;;2.80;99.90;;;;;;5110386;28;19911;-39
2022/12/12 14:20:42;;;;;;;;;;;2.70;99.90;;;;;;5116546;28;19915;-40
2022/12/12 14:23:25;;;;;;;;;;;2.70;99.90;;;;;;5115493;28;20037;-39
2022/12/12 14:25:51;;;;;;;;;;;2.60;99.90;;;;;;5116253;28;19908;-41
2022/12/12 14:28:18;;;;;;;;;;;2.60;99.90;;;;;;5116124;28;19908;-43
2022/12/12 14:30:50;;;;;;;;;;;2.50;99.90;;;;;;5109056;28;19912;-40
2022/12/12 14:33:16;;;;;;;;;;;2.50;99.90;;;;;;5095825;28;19908;-40
2022/12/12 14:35:57;;;;;;;;;;;2.50;99.90;;;;;;5095395;28;19909;-39
2022/12/12 14:38:41;;;;;;;;;;;2.40;99.90;;;;;;5095160;28;19908;-39
2022/12/12 14:41:14;;;;;;;;;;;2.40;99.90;;;;;;5095502;28;20002;-39
2022/12/12 14:43:43;;;;;;;;;;;2.30;99.90;;;;;;5095111;28;20350;-40
2022/12/12 14:46:16;;;;;;;;;;;2.30;99.90;;;;;;5098330;28;19938;-39
2022/12/12 14:48:42;;;;;;;;;;;2.30;99.90;;;;;;5113139;28;20054;-40
2022/12/12 14:51:10;;;;;;;;;;;2.20;99.90;;;;;;5093381;28;20272;-40
2022/12/12 14:53:35;;;;;;;;;;;2.20;99.90;;;;;;5095003;28;20308;-40
2022/12/12 14:56:21;;;;;;;;;;;2.10;99.90;;;;;;5094666;28;20046;-39